createdAt,value
2022-11-08T00:00:01.126Z,17
2022-11-08T00:01:01.099Z,18
2022-11-08T00:02:01.332Z,19
2022-11-08T00:03:01.213Z,17
2022-11-08T00:04:01.099Z,18
2022-11-08T00:05:01.133Z,17
2022-11-08T00:06:01.097Z,16
2022-11-08T00:07:01.101Z,15
2022-11-08T00:11:01.127Z,16
2022-11-08T00:12:01.097Z,17
2022-11-08T00:14:01.166Z,18
2022-11-08T00:15:01.137Z,18
2022-11-08T00:17:01.164Z,19
2022-11-08T00:19:01.102Z,18
2022-11-08T00:20:01.147Z,19
2022-11-08T00:21:01.105Z,18
2022-11-08T00:22:01.109Z,17
2022-11-08T00:23:01.103Z,18
2022-11-08T00:24:01.098Z,19
2022-11-08T00:25:06.137Z,18
2022-11-08T00:26:01.106Z,20
2022-11-08T00:27:01.129Z,19
2022-11-08T00:28:01.104Z,18
2022-11-08T00:29:01.099Z,16
2022-11-08T00:30:01.143Z,16
2022-11-08T00:31:01.105Z,15
2022-11-08T00:33:01.168Z,18
2022-11-08T00:35:01.141Z,19
2022-11-08T00:36:01.109Z,20
2022-11-08T00:37:01.107Z,19
2022-11-08T00:39:01.106Z,21
2022-11-08T00:40:01.135Z,19
2022-11-08T00:41:01.108Z,18
2022-11-08T00:43:01.203Z,15
2022-11-08T00:44:01.108Z,14
2022-11-08T00:45:01.140Z,14
2022-11-08T00:48:01.084Z,16
2022-11-08T00:49:01.088Z,17
2022-11-08T00:50:01.086Z,18
2022-11-08T00:51:01.083Z,19
2022-11-08T00:52:01.087Z,21
2022-11-08T00:53:01.086Z,18
2022-11-08T00:55:01.113Z,16
2022-11-08T00:56:01.086Z,18
2022-11-08T00:57:01.088Z,17
2022-11-08T00:58:01.133Z,19
2022-11-08T00:59:01.114Z,21
2022-11-08T01:00:01.081Z,23
2022-11-08T01:01:01.158Z,22
2022-11-08T01:02:01.201Z,19
2022-11-08T01:03:01.086Z,16
2022-11-08T01:04:01.087Z,15
2022-11-08T01:05:01.087Z,14
2022-11-08T01:07:01.087Z,17
2022-11-08T01:08:01.085Z,18
2022-11-08T01:09:01.088Z,17
2022-11-08T01:10:01.086Z,18
2022-11-08T01:11:01.087Z,19
2022-11-08T01:13:01.152Z,20
2022-11-08T01:15:01.123Z,19
2022-11-08T01:17:01.087Z,18
2022-11-08T01:18:01.087Z,17
2022-11-08T01:19:01.091Z,18
2022-11-08T01:21:01.089Z,16
2022-11-08T01:22:01.090Z,17
2022-11-08T01:23:01.094Z,16
2022-11-08T01:24:01.091Z,15
2022-11-08T01:26:01.098Z,17
2022-11-08T01:30:01.105Z,17
2022-11-08T01:31:01.114Z,16
2022-11-08T01:32:01.095Z,14
2022-11-08T01:33:01.092Z,15
2022-11-08T01:36:01.094Z,16
2022-11-08T01:37:01.091Z,17
2022-11-08T01:38:01.092Z,18
2022-11-08T01:39:01.090Z,19
2022-11-08T01:42:01.094Z,18
2022-11-08T01:43:01.094Z,19
2022-11-08T01:44:01.094Z,18
2022-11-08T01:45:01.128Z,18
2022-11-08T01:46:01.097Z,16
2022-11-08T01:48:01.115Z,15
2022-11-08T01:50:01.123Z,14
2022-11-08T01:52:01.093Z,15
2022-11-08T01:53:01.093Z,14
2022-11-08T01:55:01.094Z,15
2022-11-08T01:57:01.096Z,14
2022-11-08T01:58:01.095Z,15
2022-11-08T02:00:01.132Z,16
2022-11-08T02:01:01.164Z,17
2022-11-08T02:03:01.167Z,18
2022-11-08T02:04:01.115Z,19
2022-11-08T02:06:01.095Z,18
2022-11-08T02:07:02.125Z,19
2022-11-08T02:08:01.094Z,17
2022-11-08T02:09:01.096Z,16
2022-11-08T02:10:01.166Z,15
2022-11-08T02:11:01.095Z,16
2022-11-08T02:12:01.095Z,17
2022-11-08T02:13:04.723Z,18
2022-11-08T02:14:01.106Z,19
2022-11-08T02:15:01.126Z,19
2022-11-08T02:17:01.096Z,18
2022-11-08T02:18:01.096Z,19
2022-11-08T02:21:01.121Z,18
2022-11-08T02:22:01.099Z,19
2022-11-08T02:23:01.099Z,18
2022-11-08T02:25:01.141Z,17
2022-11-08T02:26:01.099Z,19
2022-11-08T02:27:01.097Z,18
2022-11-08T02:30:01.132Z,20
2022-11-08T02:31:01.104Z,18
2022-11-08T02:32:01.103Z,20
2022-11-08T02:34:01.153Z,18
2022-11-08T02:35:01.083Z,17
2022-11-08T02:36:01.091Z,16
2022-11-08T02:37:01.110Z,17
2022-11-08T02:38:01.085Z,15
2022-11-08T02:39:01.088Z,17
2022-11-08T02:40:01.089Z,18
2022-11-08T02:42:01.090Z,19
2022-11-08T02:43:01.090Z,20
2022-11-08T02:45:01.090Z,19
2022-11-08T02:46:01.091Z,18
2022-11-08T02:47:01.089Z,17
2022-11-08T02:48:01.090Z,15
2022-11-08T02:49:01.090Z,14
2022-11-08T02:50:01.092Z,15
2022-11-08T02:51:01.088Z,13
2022-11-08T02:52:01.089Z,15
2022-11-08T02:53:01.115Z,17
2022-11-08T02:58:01.092Z,18
2022-11-08T02:59:01.092Z,19
2022-11-08T03:00:01.108Z,20
2022-11-08T03:01:01.187Z,19
2022-11-08T03:03:01.156Z,17
2022-11-08T03:04:01.098Z,19
2022-11-08T03:06:01.093Z,22
2022-11-08T03:07:01.086Z,21
2022-11-08T03:09:01.120Z,20
2022-11-08T03:10:01.089Z,18
2022-11-08T03:11:01.090Z,17
2022-11-08T03:12:01.092Z,16
2022-11-08T03:15:01.220Z,15
2022-11-08T03:16:01.091Z,16
2022-11-08T03:18:01.092Z,17
2022-11-08T03:19:01.092Z,19
2022-11-08T03:20:01.091Z,20
2022-11-08T03:21:01.093Z,19
2022-11-08T03:22:02.118Z,20
2022-11-08T03:23:01.092Z,19
2022-11-08T03:24:01.087Z,18
2022-11-08T03:26:01.117Z,19
2022-11-08T03:28:01.092Z,21
2022-11-08T03:29:01.093Z,20
2022-11-08T03:30:01.127Z,19
2022-11-08T03:32:01.097Z,18
2022-11-08T03:33:01.093Z,15
2022-11-08T03:36:01.097Z,13
2022-11-08T03:38:01.095Z,14
2022-11-08T03:39:01.096Z,15
2022-11-08T03:40:01.133Z,16
2022-11-08T03:42:01.126Z,19
2022-11-08T03:43:01.098Z,18
2022-11-08T03:44:01.098Z,19
2022-11-08T03:45:01.135Z,18
2022-11-08T03:47:01.084Z,20
2022-11-08T03:48:01.080Z,18
2022-11-08T03:49:01.081Z,20
2022-11-08T03:50:01.084Z,19
2022-11-08T03:51:01.081Z,18
2022-11-08T03:54:01.146Z,17
2022-11-08T03:55:01.080Z,16
2022-11-08T03:57:01.081Z,15
2022-11-08T03:59:01.110Z,16
2022-11-08T04:00:01.088Z,14
2022-11-08T04:01:01.140Z,16
2022-11-08T04:03:01.090Z,15
2022-11-08T04:05:01.086Z,17
2022-11-08T04:06:01.092Z,15
2022-11-08T04:07:01.092Z,16
2022-11-08T04:08:01.116Z,18
2022-11-08T04:09:01.086Z,17
2022-11-08T04:10:01.084Z,18
2022-11-08T04:12:01.086Z,16
2022-11-08T04:13:01.084Z,18
2022-11-08T04:15:01.109Z,17
2022-11-08T04:17:01.085Z,18
2022-11-08T04:18:01.087Z,16
2022-11-08T04:19:02.112Z,17
2022-11-08T04:21:01.096Z,16
2022-11-08T04:22:01.088Z,17
2022-11-08T04:23:01.087Z,16
2022-11-08T04:27:01.088Z,15
2022-11-08T04:28:01.085Z,16
2022-11-08T04:29:01.093Z,15
2022-11-08T04:30:01.131Z,16
2022-11-08T04:31:01.121Z,17
2022-11-08T04:32:01.088Z,18
2022-11-08T04:33:01.095Z,19
2022-11-08T04:34:01.091Z,21
2022-11-08T04:35:01.092Z,20
2022-11-08T04:36:01.091Z,19
2022-11-08T04:38:01.091Z,18
2022-11-08T04:39:01.089Z,16
2022-11-08T04:40:01.093Z,18
2022-11-08T04:41:01.096Z,17
2022-11-08T04:42:02.527Z,18
2022-11-08T04:43:01.094Z,17
2022-11-08T04:45:01.091Z,17
2022-11-08T04:47:01.115Z,16
2022-11-08T04:48:01.091Z,17
2022-11-08T04:49:01.095Z,18
2022-11-08T04:51:01.101Z,20
2022-11-08T04:53:02.245Z,19
2022-11-08T04:54:01.093Z,18
2022-11-08T04:56:01.096Z,14
2022-11-08T04:57:01.092Z,15
2022-11-08T04:58:01.090Z,18
2022-11-08T05:00:01.130Z,19
2022-11-08T05:01:01.190Z,21
2022-11-08T05:03:01.293Z,19
2022-11-08T05:06:01.089Z,17
2022-11-08T05:08:01.093Z,16
2022-11-08T05:09:01.110Z,15
2022-11-08T05:12:01.107Z,16
2022-11-08T05:14:01.160Z,15
2022-11-08T05:15:01.094Z,13
2022-11-08T05:16:01.092Z,14
2022-11-08T05:17:01.095Z,13
2022-11-08T05:18:01.091Z,14
2022-11-08T05:19:01.114Z,15
2022-11-08T05:20:01.091Z,17
2022-11-08T05:21:01.093Z,16
2022-11-08T05:23:01.223Z,15
2022-11-08T05:24:01.090Z,16
2022-11-08T05:28:01.092Z,15
2022-11-08T05:29:01.096Z,16
2022-11-08T05:30:01.121Z,17
2022-11-08T05:31:01.104Z,18
2022-11-08T05:33:01.154Z,19
2022-11-08T05:35:01.150Z,18
2022-11-08T05:36:05.597Z,17
2022-11-08T05:38:01.094Z,18
2022-11-08T05:39:01.098Z,16
2022-11-08T05:41:01.098Z,14
2022-11-08T05:44:01.168Z,13
2022-11-08T05:45:03.999Z,15
2022-11-08T05:47:01.096Z,16
2022-11-08T05:48:01.095Z,17
2022-11-08T05:49:01.099Z,16
2022-11-08T05:50:01.139Z,15
2022-11-08T05:51:01.122Z,17
2022-11-08T05:54:01.164Z,18
2022-11-08T05:56:01.099Z,17
2022-11-08T05:57:01.099Z,15
2022-11-08T05:58:01.162Z,14
2022-11-08T06:00:01.085Z,13
2022-11-08T06:01:01.086Z,12
2022-11-08T06:02:01.117Z,13
2022-11-08T06:03:01.254Z,14
2022-11-08T06:04:01.111Z,15
2022-11-08T06:05:01.087Z,16
2022-11-08T06:06:01.086Z,18
2022-11-08T06:09:01.111Z,19
2022-11-08T06:11:01.088Z,18
2022-11-08T06:12:01.089Z,16
2022-11-08T06:15:01.153Z,18
2022-11-08T06:16:01.088Z,19
2022-11-08T06:17:01.088Z,22
2022-11-08T06:20:01.085Z,21
2022-11-08T06:21:01.088Z,19
2022-11-08T06:22:01.089Z,18
2022-11-08T06:23:01.090Z,17
2022-11-08T06:24:01.089Z,15
2022-11-08T06:25:01.159Z,17
2022-11-08T06:26:01.095Z,18
2022-11-08T06:27:01.089Z,17
2022-11-08T06:28:01.087Z,18
2022-11-08T06:29:01.090Z,19
2022-11-08T06:30:01.091Z,16
2022-11-08T06:31:01.090Z,13
2022-11-08T06:35:01.156Z,14
2022-11-08T06:36:01.095Z,17
2022-11-08T06:37:01.094Z,16
2022-11-08T06:38:03.560Z,18
2022-11-08T06:39:01.100Z,19
2022-11-08T06:40:01.088Z,18
2022-11-08T06:41:01.134Z,17
2022-11-08T06:42:01.094Z,18
2022-11-08T06:44:01.222Z,16
2022-11-08T06:45:01.140Z,16
2022-11-08T06:46:01.094Z,17
2022-11-08T06:48:01.097Z,15
2022-11-08T06:50:01.144Z,16
2022-11-08T06:51:01.099Z,15
2022-11-08T06:52:01.097Z,13
2022-11-08T06:53:01.097Z,14
2022-11-08T06:54:01.101Z,13
2022-11-08T06:55:01.133Z,12
2022-11-08T06:56:01.111Z,13
2022-11-08T06:57:01.120Z,14
2022-11-08T06:59:01.100Z,15
2022-11-08T07:00:01.137Z,17
2022-11-08T07:01:01.107Z,16
2022-11-08T07:02:01.168Z,17
2022-11-08T07:05:01.259Z,16
2022-11-08T07:06:01.101Z,15
2022-11-08T07:08:01.122Z,17
2022-11-08T07:09:01.109Z,19
2022-11-08T07:15:01.228Z,19
2022-11-08T07:16:01.109Z,21
2022-11-08T07:18:01.143Z,20
2022-11-08T07:19:01.102Z,19
2022-11-08T07:20:01.141Z,20
2022-11-08T07:23:01.160Z,19
2022-11-08T07:24:01.083Z,18
2022-11-08T07:25:01.089Z,19
2022-11-08T07:26:01.089Z,16
2022-11-08T07:28:01.095Z,17
2022-11-08T07:29:01.090Z,18
2022-11-08T07:30:01.169Z,18
2022-11-08T07:31:01.113Z,19
2022-11-08T07:35:01.153Z,18
2022-11-08T07:36:01.094Z,17
2022-11-08T07:37:01.088Z,16
2022-11-08T07:38:01.088Z,17
2022-11-08T07:39:05.422Z,16
2022-11-08T07:40:01.087Z,17
2022-11-08T07:42:01.090Z,19
2022-11-08T07:43:16.512Z,18
2022-11-08T07:44:01.072Z,20
2022-11-08T07:45:01.090Z,19
2022-11-08T07:47:01.115Z,18
2022-11-08T07:49:01.088Z,16
2022-11-08T07:51:01.091Z,15
2022-11-08T07:52:01.088Z,16
2022-11-08T07:54:03.146Z,18
2022-11-08T07:55:01.091Z,20
2022-11-08T07:56:01.090Z,22
2022-11-08T07:57:01.089Z,21
2022-11-08T08:00:04.940Z,19
2022-11-08T08:01:01.093Z,18
2022-11-08T08:03:01.447Z,16
2022-11-08T08:04:01.137Z,15
2022-11-08T08:05:01.101Z,14
2022-11-08T08:07:01.097Z,15
2022-11-08T08:08:01.096Z,18
2022-11-08T08:09:01.098Z,20
2022-11-08T08:11:01.098Z,22
2022-11-08T08:13:01.166Z,20
2022-11-08T08:14:01.097Z,19
2022-11-08T08:15:01.136Z,19
2022-11-08T08:16:01.140Z,17
2022-11-08T08:17:01.098Z,14
2022-11-08T08:18:01.128Z,13
2022-11-08T08:19:01.099Z,14
2022-11-08T08:20:01.223Z,13
2022-11-08T08:22:01.101Z,16
2022-11-08T08:23:01.101Z,17
2022-11-08T08:28:01.102Z,15
2022-11-08T08:29:01.100Z,16
2022-11-08T08:30:01.134Z,17
2022-11-08T08:31:01.100Z,20
2022-11-08T08:34:01.167Z,19
2022-11-08T08:37:01.139Z,16
2022-11-08T08:39:01.087Z,17
2022-11-08T08:45:01.154Z,20
2022-11-08T08:46:01.091Z,18
2022-11-08T08:47:01.086Z,19
2022-11-08T08:48:01.086Z,21
2022-11-08T08:49:01.087Z,20
2022-11-08T08:50:01.098Z,18
2022-11-08T08:51:01.099Z,21
2022-11-08T08:52:01.105Z,22
2022-11-08T08:53:01.121Z,19
2022-11-08T08:54:01.103Z,20
2022-11-08T08:55:01.097Z,19
2022-11-08T08:56:01.096Z,18
2022-11-08T08:58:01.093Z,19
2022-11-08T09:22:01.214Z,15
2022-11-08T09:23:00.963Z,18
2022-11-08T09:24:00.945Z,19
2022-11-08T09:25:00.947Z,18
2022-11-08T09:26:00.969Z,17
2022-11-08T09:28:00.945Z,16
2022-11-08T09:30:00.949Z,16
2022-11-08T09:31:00.982Z,15
2022-11-08T09:32:00.942Z,17
2022-11-08T09:34:00.959Z,16
2022-11-08T09:35:00.975Z,17
2022-11-08T09:36:00.980Z,18
2022-11-08T09:39:00.970Z,19
2022-11-08T09:40:00.946Z,18
2022-11-08T09:42:00.991Z,15
2022-11-08T09:45:01.008Z,17
2022-11-08T09:46:01.020Z,18
2022-11-08T09:47:00.992Z,20
2022-11-08T09:48:03.098Z,21
2022-11-08T09:49:01.024Z,20
2022-11-08T09:53:01.052Z,18
2022-11-08T09:54:01.085Z,17
2022-11-08T09:55:01.042Z,15
2022-11-08T09:58:00.985Z,18
2022-11-08T09:59:00.946Z,19
2022-11-08T10:00:00.955Z,22
2022-11-08T10:01:00.948Z,21
2022-11-08T10:03:01.049Z,20
2022-11-08T10:05:00.949Z,18
2022-11-08T10:06:00.950Z,19
2022-11-08T10:07:02.597Z,18
2022-11-08T10:09:00.986Z,16
2022-11-08T10:10:00.952Z,17
2022-11-08T10:13:01.195Z,15
2022-11-08T10:15:00.981Z,15
2022-11-08T10:17:00.958Z,14
2022-11-08T10:18:00.957Z,16
2022-11-08T10:21:00.989Z,18
2022-11-08T10:22:00.953Z,19
2022-11-08T10:23:00.951Z,20
2022-11-08T10:25:00.954Z,21
2022-11-08T10:26:01.002Z,20
2022-11-08T10:27:00.954Z,19
2022-11-08T10:28:00.957Z,18
2022-11-08T10:30:00.982Z,18
2022-11-08T10:31:01.005Z,17
2022-11-08T10:32:00.955Z,20
2022-11-08T10:33:00.952Z,18
2022-11-08T10:34:00.954Z,19
2022-11-08T10:35:00.958Z,17
2022-11-08T10:37:00.990Z,15
2022-11-08T10:38:00.962Z,18
2022-11-08T10:39:00.956Z,19
2022-11-08T10:41:00.956Z,18
2022-11-08T10:43:04.403Z,17
2022-11-08T10:44:00.958Z,15
2022-11-08T10:45:00.955Z,15
2022-11-08T10:46:00.979Z,18
2022-11-08T10:47:00.956Z,19
2022-11-08T10:49:00.980Z,17
2022-11-08T10:50:03.827Z,19
2022-11-08T10:51:00.958Z,18
2022-11-08T10:52:00.958Z,17
2022-11-08T10:54:01.100Z,19
2022-11-08T10:56:00.963Z,18
2022-11-08T10:57:00.956Z,20
2022-11-08T10:58:00.965Z,19
2022-11-08T11:00:01.018Z,19
2022-11-08T11:04:01.048Z,18
2022-11-08T11:05:00.992Z,17
2022-11-08T11:09:00.964Z,20
2022-11-08T11:10:00.995Z,21
2022-11-08T11:14:01.986Z,19
2022-11-08T11:15:01.389Z,18
2022-11-08T11:16:00.961Z,19
2022-11-08T11:17:00.960Z,17
2022-11-08T11:18:00.960Z,15
2022-11-08T11:19:00.959Z,14
2022-11-08T11:20:00.986Z,16
2022-11-08T11:21:00.961Z,14
2022-11-08T11:23:01.027Z,15
2022-11-08T11:24:00.961Z,16
2022-11-08T11:25:00.989Z,17
2022-11-08T11:26:00.962Z,18
2022-11-08T11:27:00.960Z,19
2022-11-08T11:28:00.962Z,20
2022-11-08T11:29:00.961Z,21
2022-11-08T11:30:00.990Z,19
2022-11-08T11:31:00.961Z,20
2022-11-08T11:32:00.968Z,19
2022-11-08T11:33:00.989Z,17
2022-11-08T11:34:00.962Z,16
2022-11-08T11:35:00.989Z,14
2022-11-08T11:36:01.046Z,13
2022-11-08T11:38:00.957Z,14
2022-11-08T11:39:00.964Z,15
2022-11-08T11:40:01.014Z,16
2022-11-08T11:41:01.040Z,19
2022-11-08T11:42:12.609Z,18
2022-11-08T11:43:00.946Z,17
2022-11-08T11:44:00.965Z,16
2022-11-08T11:45:01.008Z,16
2022-11-08T11:46:00.970Z,14
2022-11-08T11:47:00.974Z,15
2022-11-08T11:48:00.965Z,17
2022-11-08T11:49:00.965Z,18
2022-11-08T11:51:00.986Z,17
2022-11-08T11:52:01.037Z,19
2022-11-08T11:53:00.981Z,17
2022-11-08T11:55:00.975Z,18
2022-11-08T11:56:00.968Z,20
2022-11-08T11:57:00.967Z,18
2022-11-08T11:58:00.967Z,17
2022-11-08T12:00:00.970Z,18
2022-11-08T12:02:01.051Z,19
2022-11-08T12:03:00.969Z,22
2022-11-08T12:04:00.967Z,23
2022-11-08T12:05:00.967Z,22
2022-11-08T12:06:00.967Z,21
2022-11-08T12:07:05.170Z,20
2022-11-08T12:08:01.072Z,18
2022-11-08T12:09:02.000Z,17
2022-11-08T12:12:01.037Z,16
2022-11-08T12:15:01.033Z,17
2022-11-08T12:17:00.988Z,18
2022-11-08T12:18:01.063Z,17
2022-11-08T12:20:01.428Z,18
2022-11-08T12:21:00.973Z,17
2022-11-08T12:23:01.036Z,19
2022-11-08T12:24:01.006Z,18
2022-11-08T12:25:00.976Z,17
2022-11-08T12:26:01.043Z,16
2022-11-08T12:29:01.042Z,17
2022-11-08T12:30:00.975Z,19
2022-11-08T12:33:01.104Z,18
2022-11-08T12:34:00.976Z,16
2022-11-08T12:35:00.969Z,15
2022-11-08T12:36:00.974Z,14
2022-11-08T12:37:00.974Z,16
2022-11-08T12:39:00.972Z,18
2022-11-08T12:40:01.001Z,19
2022-11-08T12:43:01.046Z,17
2022-11-08T12:45:00.976Z,15
2022-11-08T12:46:00.984Z,14
2022-11-08T12:48:00.980Z,15
2022-11-08T12:49:00.978Z,14
2022-11-08T12:51:01.855Z,15
2022-11-08T12:53:01.107Z,16
2022-11-08T12:54:00.986Z,17
2022-11-08T12:55:00.982Z,21
2022-11-08T12:56:01.039Z,20
2022-11-08T12:57:00.981Z,18
2022-11-08T12:58:00.982Z,17
2022-11-08T13:00:00.981Z,14
2022-11-08T13:02:01.010Z,16
2022-11-08T13:05:01.044Z,15
2022-11-08T13:06:01.026Z,16
2022-11-08T13:07:01.042Z,17
2022-11-08T13:08:00.982Z,18
2022-11-08T13:10:00.983Z,20
2022-11-08T13:13:01.163Z,18
2022-11-08T13:14:00.985Z,19
2022-11-08T13:15:00.985Z,18
2022-11-08T13:16:00.984Z,19
2022-11-08T13:17:01.018Z,17
2022-11-08T13:18:00.981Z,19
2022-11-08T13:19:00.981Z,18
2022-11-08T13:21:00.983Z,17
2022-11-08T13:23:01.421Z,18
2022-11-08T13:24:06.593Z,19
2022-11-08T13:27:00.982Z,18
2022-11-08T13:28:00.985Z,17
2022-11-08T13:29:01.008Z,18
2022-11-08T13:30:00.981Z,18
2022-11-08T13:31:00.983Z,19
2022-11-08T13:33:01.048Z,18
2022-11-08T13:35:00.980Z,17
2022-11-08T13:36:00.982Z,16
2022-11-08T13:37:00.982Z,15
2022-11-08T13:38:00.983Z,16
2022-11-08T13:40:00.983Z,18
2022-11-08T13:42:00.993Z,19
2022-11-08T13:45:01.080Z,19
2022-11-08T13:49:00.989Z,18
2022-11-08T13:50:00.990Z,19
2022-11-08T13:52:00.993Z,18
2022-11-08T13:53:01.036Z,19
2022-11-08T13:54:01.214Z,18
2022-11-08T13:55:00.987Z,16
2022-11-08T13:56:01.057Z,17
2022-11-08T13:59:00.988Z,18
2022-11-08T14:00:01.145Z,19
2022-11-08T14:01:01.184Z,17
2022-11-08T14:02:00.989Z,18
2022-11-08T14:03:01.052Z,19
2022-11-08T14:04:00.989Z,20
2022-11-08T14:07:01.073Z,19
2022-11-08T14:10:01.002Z,18
2022-11-08T14:11:01.003Z,17
2022-11-08T14:12:00.989Z,18
2022-11-08T14:13:01.054Z,19
2022-11-08T14:14:01.061Z,18
2022-11-08T14:15:00.992Z,18
2022-11-08T14:18:01.076Z,17
2022-11-08T14:19:01.001Z,18
2022-11-08T14:22:00.994Z,16
2022-11-08T14:23:00.988Z,17
2022-11-08T14:25:00.996Z,16
2022-11-08T14:26:00.993Z,19
2022-11-08T14:27:00.991Z,21
2022-11-08T14:28:01.055Z,19
2022-11-08T14:29:00.992Z,18
2022-11-08T14:30:00.999Z,21
2022-11-08T14:31:00.993Z,19
2022-11-08T14:32:00.993Z,18
2022-11-08T14:33:00.996Z,20
2022-11-08T14:34:01.131Z,21
2022-11-08T14:35:01.014Z,20
2022-11-08T14:37:00.996Z,21
2022-11-08T14:38:01.024Z,20
2022-11-08T14:39:00.997Z,21
2022-11-08T14:40:00.992Z,20
2022-11-08T14:42:01.004Z,19
2022-11-08T14:44:01.070Z,17
2022-11-08T14:45:00.999Z,18
2022-11-08T14:47:00.999Z,19
2022-11-08T14:48:01.039Z,20
2022-11-08T14:49:00.999Z,19
2022-11-08T14:50:01.141Z,18
2022-11-08T14:53:01.155Z,16
2022-11-08T14:54:01.006Z,18
2022-11-08T14:55:01.001Z,17
2022-11-08T14:56:01.000Z,16
2022-11-08T14:58:02.061Z,18
2022-11-08T14:59:01.004Z,16
2022-11-08T15:00:00.999Z,18
2022-11-08T15:01:01.055Z,20
2022-11-08T15:03:01.098Z,17
2022-11-08T15:04:00.999Z,16
2022-11-08T15:05:00.999Z,17
2022-11-08T15:06:01.024Z,16
2022-11-08T15:07:01.089Z,15
2022-11-08T15:08:01.030Z,17
2022-11-08T15:09:00.999Z,19
2022-11-08T15:10:01.004Z,18
2022-11-08T15:11:01.001Z,19
2022-11-08T15:12:01.002Z,18
2022-11-08T15:13:01.039Z,17
2022-11-08T15:14:01.004Z,15
2022-11-08T15:15:01.005Z,16
2022-11-08T15:16:01.003Z,13
2022-11-08T15:17:03.240Z,17
2022-11-08T15:18:01.048Z,16
2022-11-08T15:19:01.002Z,17
2022-11-08T15:21:01.068Z,19
2022-11-08T15:22:01.075Z,16
2022-11-08T15:24:01.067Z,15
2022-11-08T15:25:01.001Z,16
2022-11-08T15:27:01.005Z,15
2022-11-08T15:30:01.003Z,14
2022-11-08T15:31:01.005Z,13
2022-11-08T15:32:01.826Z,17
2022-11-08T15:35:01.136Z,16
2022-11-08T15:36:01.005Z,17
2022-11-08T15:37:01.005Z,16
2022-11-08T15:38:01.056Z,17
2022-11-08T15:39:01.033Z,16
2022-11-08T15:41:01.006Z,15
2022-11-08T15:45:01.070Z,16
2022-11-08T15:48:01.007Z,15
2022-11-08T15:50:01.010Z,16
2022-11-08T15:53:01.135Z,17
2022-11-08T15:54:01.088Z,16
2022-11-08T15:55:01.013Z,18
2022-11-08T15:57:01.008Z,19
2022-11-08T15:58:01.006Z,18
2022-11-08T15:59:01.048Z,19
2022-11-08T16:00:01.009Z,16
2022-11-08T16:01:01.076Z,17
2022-11-08T16:06:01.070Z,16
2022-11-08T16:08:01.007Z,15
2022-11-08T16:09:01.024Z,16
2022-11-08T16:10:01.065Z,17
2022-11-08T16:12:01.010Z,18
2022-11-08T16:13:01.172Z,19
2022-11-08T16:15:01.040Z,20
2022-11-08T16:17:01.007Z,19
2022-11-08T16:18:01.006Z,20
2022-11-08T16:19:01.007Z,19
2022-11-08T16:20:01.044Z,16
2022-11-08T16:23:01.079Z,14
2022-11-08T16:24:01.016Z,15
2022-11-08T16:28:03.673Z,14
2022-11-08T16:30:01.183Z,15
2022-11-08T16:31:01.015Z,16
2022-11-08T16:32:01.010Z,15
2022-11-08T16:33:01.011Z,17
2022-11-08T16:34:01.011Z,16
2022-11-08T16:35:01.035Z,15
2022-11-08T16:36:01.073Z,17
2022-11-08T16:37:01.015Z,16
2022-11-08T16:38:01.014Z,18
2022-11-08T16:39:01.149Z,17
2022-11-08T16:40:01.086Z,16
2022-11-08T16:41:01.076Z,14
2022-11-08T16:44:01.186Z,17
2022-11-08T16:45:01.146Z,18
2022-11-08T16:49:01.080Z,16
2022-11-08T16:50:01.173Z,17
2022-11-08T16:52:01.015Z,18
2022-11-08T16:54:01.074Z,19
2022-11-08T16:56:01.016Z,20
2022-11-08T16:57:21.061Z,19
2022-11-08T16:58:01.026Z,18
2022-11-08T16:59:01.025Z,17
2022-11-08T17:00:01.080Z,17
2022-11-08T17:02:01.066Z,18
2022-11-08T17:03:01.020Z,19
2022-11-08T17:06:01.016Z,18
2022-11-08T17:08:01.017Z,19
2022-11-08T17:10:01.020Z,18
2022-11-08T17:12:01.018Z,19
2022-11-08T17:15:01.154Z,19
2022-11-08T17:16:01.046Z,20
2022-11-08T17:17:01.020Z,19
2022-11-08T17:18:01.020Z,17
2022-11-08T17:19:01.020Z,18
2022-11-08T17:20:01.020Z,20
2022-11-08T17:21:11.322Z,19
2022-11-08T17:22:01.015Z,20
2022-11-08T17:23:01.080Z,21
2022-11-08T17:24:01.024Z,19
2022-11-08T17:25:01.020Z,17
2022-11-08T17:26:01.126Z,18
2022-11-08T17:27:01.048Z,16
2022-11-08T17:28:01.103Z,18
2022-11-08T17:29:01.024Z,20
2022-11-08T17:30:01.020Z,21
2022-11-08T17:31:01.021Z,19
2022-11-08T17:32:01.043Z,21
2022-11-08T17:33:01.018Z,17
2022-11-08T17:34:01.020Z,16
2022-11-08T17:35:01.019Z,17
2022-11-08T17:36:01.022Z,19
2022-11-08T17:37:01.021Z,18
2022-11-08T17:38:01.020Z,19
2022-11-08T17:42:01.030Z,18
2022-11-08T17:43:01.022Z,19
2022-11-08T17:45:01.030Z,19
2022-11-08T17:46:01.024Z,17
2022-11-08T17:47:01.025Z,18
2022-11-08T17:48:01.117Z,16
2022-11-08T17:49:01.031Z,14
2022-11-08T17:51:01.022Z,15
2022-11-08T17:53:01.091Z,16
2022-11-08T17:54:01.025Z,17
2022-11-08T17:55:01.022Z,16
2022-11-08T17:56:01.041Z,15
2022-11-08T17:57:01.018Z,16
2022-11-08T17:59:01.025Z,15
2022-11-08T18:00:01.102Z,17
2022-11-08T18:01:01.136Z,16
2022-11-08T18:02:01.076Z,17
2022-11-08T18:03:01.024Z,19
2022-11-08T18:04:01.115Z,20
2022-11-08T18:05:01.024Z,19
2022-11-08T18:06:01.026Z,20
2022-11-08T18:13:01.090Z,22
2022-11-08T18:15:01.097Z,20
2022-11-08T18:16:01.025Z,18
2022-11-08T18:17:01.024Z,17
2022-11-08T18:19:01.024Z,15
2022-11-08T18:20:01.047Z,16
2022-11-08T18:21:01.058Z,17
2022-11-08T18:22:01.024Z,18
2022-11-08T18:23:01.090Z,15
2022-11-08T18:24:01.027Z,16
2022-11-08T18:26:01.054Z,15
2022-11-08T18:28:01.027Z,17
2022-11-08T18:29:01.024Z,16
2022-11-08T18:30:01.036Z,16
2022-11-08T18:31:01.292Z,19
2022-11-08T18:32:01.030Z,20
2022-11-08T18:33:01.030Z,18
2022-11-08T18:34:01.188Z,20
2022-11-08T18:36:01.048Z,19
2022-11-08T18:37:01.155Z,18
2022-11-08T18:39:01.087Z,17
2022-11-08T18:41:01.182Z,16
2022-11-08T18:42:01.072Z,17
2022-11-08T18:43:01.027Z,19
2022-11-08T18:45:01.093Z,19
2022-11-08T18:46:01.140Z,18
2022-11-08T18:50:01.039Z,17
2022-11-08T18:51:01.031Z,19
2022-11-08T18:52:01.062Z,18
2022-11-08T18:53:03.831Z,17
2022-11-08T19:00:01.686Z,17
2022-11-08T19:03:01.128Z,16
2022-11-08T19:04:01.034Z,17
2022-11-08T19:06:01.031Z,16
2022-11-08T19:07:01.041Z,18
2022-11-08T19:08:01.084Z,19
2022-11-08T19:09:01.250Z,17
2022-11-08T19:10:01.030Z,19
2022-11-08T19:11:01.159Z,20
2022-11-08T19:12:05.660Z,18
2022-11-08T19:14:01.371Z,19
2022-11-08T19:15:01.033Z,19
2022-11-08T19:16:01.033Z,17
2022-11-08T19:18:01.032Z,16
2022-11-08T19:20:01.070Z,15
2022-11-08T19:23:01.096Z,16
2022-11-08T19:25:01.086Z,17
2022-11-08T19:26:01.035Z,18
2022-11-08T19:29:01.036Z,16
2022-11-08T19:30:01.072Z,16
2022-11-08T19:31:01.040Z,17
2022-11-08T19:32:01.033Z,16
2022-11-08T19:33:01.033Z,17
2022-11-08T19:34:01.034Z,18
2022-11-08T19:35:01.065Z,17
2022-11-08T19:38:01.034Z,15
2022-11-08T19:39:01.070Z,16
2022-11-08T19:40:01.068Z,17
2022-11-08T19:42:01.127Z,16
2022-11-08T19:43:01.030Z,17
2022-11-08T19:45:01.061Z,18
2022-11-08T19:47:01.036Z,20
2022-11-08T19:48:01.035Z,19
2022-11-08T19:49:01.036Z,18
2022-11-08T19:51:01.030Z,17
2022-11-08T19:54:01.101Z,18
2022-11-08T19:55:01.033Z,17
2022-11-08T19:58:01.060Z,18
2022-11-08T20:00:01.041Z,18
2022-11-08T20:05:01.128Z,20
2022-11-08T20:06:01.038Z,19
2022-11-08T20:07:01.108Z,20
2022-11-08T20:08:01.032Z,18
2022-11-08T20:09:01.038Z,16
2022-11-08T20:11:01.036Z,17
2022-11-08T20:12:01.070Z,16
2022-11-08T20:13:01.037Z,18
2022-11-08T20:14:01.064Z,19
2022-11-08T20:15:01.037Z,19
2022-11-08T20:16:01.036Z,17
2022-11-08T20:17:01.080Z,18
2022-11-08T20:18:01.042Z,16
2022-11-08T20:19:01.062Z,15
2022-11-08T20:20:01.115Z,16
2022-11-08T20:22:01.275Z,17
2022-11-08T20:26:01.101Z,18
2022-11-08T20:27:01.040Z,16
2022-11-08T20:28:01.066Z,18
2022-11-08T20:29:01.039Z,17
2022-11-08T20:30:01.167Z,16
2022-11-08T20:31:01.167Z,15
2022-11-08T20:32:01.157Z,16
2022-11-08T20:33:01.168Z,15
2022-11-08T20:34:01.160Z,19
2022-11-08T20:36:01.177Z,20
2022-11-08T20:37:01.152Z,19
2022-11-08T20:38:01.297Z,18
2022-11-08T20:39:05.578Z,16
2022-11-08T20:40:01.037Z,17
2022-11-08T20:41:01.043Z,16
2022-11-08T20:42:01.040Z,17
2022-11-08T20:44:01.138Z,16
2022-11-08T20:45:01.049Z,16
2022-11-08T20:47:06.178Z,14
2022-11-08T20:48:02.522Z,15
2022-11-08T20:49:01.619Z,17
2022-11-08T20:51:01.043Z,14
2022-11-08T20:52:01.044Z,18
2022-11-08T20:53:01.044Z,16